Terminal Aerodrome Forecast
Issued by NWS Lake Charles, LA

Home | Current Version | Previous Version | Text Only | Print | Product List | Glossary On
Versions: 1 2 3 4 5 6 7 8 9 10 11 12 13 14 15 16 17
000
FTUS44 KLCH 012336
TAFAEX
TAF
KAEX 012336Z 0200/0224 13008KT P6SM SCT025
     FM020800 VRB03KT P6SM VCSH BKN012 OVC035
      TEMPO 0208/0212 5SM -SHRA
     FM021200 01005KT P6SM -SHRA VCTS BKN025 OVC035CB
     FM021600 32007KT 4SM SHRA BKN018 OVC030 PROB30 0216/0222
      VRB15G25KT 2SM TSRA OVC008CB=

USA.gov is the U.S. government's official web portal to all federal, state and local government web resources and services.